Time;durP1;ratioP1;P1;durP2;ratioP2;P2;SDS_P1;SDS_P2;PMS_P1;PMS_P2;Temp;Humidity;BMP_temperature;BMP_pressure;BME280_temperature;BME280_humidity;BME280_pressure;Samples;Min_cycle;Max_cycle;Signal;HPM_P1;HPM_P2
2023/11/06 00:01:56;;;;;;;8.00;6.13;;;;;;;;;;5054612;28;20453;-44
2023/11/06 00:04:22;;;;;;;7.57;5.60;;;;;;;;;;5054337;28;20433;-44
2023/11/06 00:06:48;;;;;;;8.20;5.70;;;;;;;;;;5054247;28;20481;-44
2023/11/06 00:09:14;;;;;;;8.53;6.67;;;;;;;;;;5054558;28;20445;-44
2023/11/06 00:11:40;;;;;;;8.50;6.53;;;;;;;;;;5045813;28;20424;-44
2023/11/06 00:14:06;;;;;;;9.17;6.93;;;;;;;;;;5047484;28;20449;-45
2023/11/06 00:16:32;;;;;;;8.33;7.00;;;;;;;;;;5053070;28;20448;-44
2023/11/06 00:18:58;;;;;;;7.63;6.40;;;;;;;;;;5053722;28;20450;-44
2023/11/06 00:21:24;;;;;;;8.70;7.80;;;;;;;;;;5054146;28;20442;-44
2023/11/06 00:23:50;;;;;;;8.10;6.67;;;;;;;;;;5051753;28;20413;-44
2023/11/06 00:26:16;;;;;;;8.13;6.50;;;;;;;;;;5054039;28;20514;-44
2023/11/06 00:28:43;;;;;;;7.47;6.53;;;;;;;;;;5053682;28;20409;-44
2023/11/06 00:31:09;;;;;;;8.13;6.37;;;;;;;;;;5052652;28;20456;-44
2023/11/06 00:33:35;;;;;;;10.37;7.90;;;;;;;;;;5053593;28;20413;-44
2023/11/06 00:36:01;;;;;;;7.60;6.10;;;;;;;;;;5053755;28;20470;-44
2023/11/06 00:38:27;;;;;;;8.10;6.50;;;;;;;;;;5053854;28;20828;-44
2023/11/06 00:40:53;;;;;;;7.33;5.90;;;;;;;;;;5053843;28;20406;-44
2023/11/06 00:43:19;;;;;;;9.10;7.30;;;;;;;;;;5053786;28;20409;-44
2023/11/06 00:45:45;;;;;;;9.07;6.93;;;;;;;;;;5053523;28;20574;-44
2023/11/06 00:48:11;;;;;;;8.87;7.23;;;;;;;;;;5053281;28;20411;-44
2023/11/06 00:50:37;;;;;;;7.60;6.30;;;;;;;;;;5053516;28;20416;-44
2023/11/06 00:53:03;;;;;;;9.03;7.57;;;;;;;;;;5052337;28;20827;-45
2023/11/06 00:55:30;;;;;;;7.77;6.37;;;;;;;;;;5053451;28;20444;-44
2023/11/06 00:57:56;;;;;;;7.57;6.27;;;;;;;;;;5053475;28;20405;-44
2023/11/06 01:00:22;;;;;;;8.53;6.93;;;;;;;;;;5053482;28;20414;-44
2023/11/06 01:02:51;;;;;;;8.70;7.60;;;;;;;;;;5053000;28;20932;-44
2023/11/06 01:05:17;;;;;;;7.67;6.87;;;;;;;;;;5047172;28;20430;-44
2023/11/06 01:07:45;;;;;;;8.13;7.10;;;;;;;;;;5053221;28;20491;-44
2023/11/06 01:10:14;;;;;;;8.60;7.70;;;;;;;;;;5046726;28;20407;-43
2023/11/06 01:12:40;;;;;;;8.37;6.80;;;;;;;;;;5053376;28;20445;-44
2023/11/06 01:15:06;;;;;;;7.93;7.00;;;;;;;;;;5052384;28;20480;-44
2023/11/06 01:17:32;;;;;;;8.43;6.43;;;;;;;;;;5053176;28;20949;-44
2023/11/06 01:19:59;;;;;;;9.17;7.57;;;;;;;;;;5052801;28;20496;-44
2023/11/06 01:22:25;;;;;;;8.57;7.60;;;;;;;;;;5053073;28;20529;-44
2023/11/06 01:24:52;;;;;;;8.93;7.63;;;;;;;;;;5052718;28;20982;-43
2023/11/06 01:27:18;;;;;;;7.60;6.80;;;;;;;;;;5045972;28;20460;-44
2023/11/06 01:29:44;;;;;;;7.93;6.77;;;;;;;;;;5051527;28;20827;-44
2023/11/06 01:32:10;;;;;;;7.63;6.47;;;;;;;;;;5052882;28;20421;-43
2023/11/06 01:34:36;;;;;;;9.33;7.30;;;;;;;;;;5052360;28;20437;-44
2023/11/06 01:37:03;;;;;;;8.17;6.30;;;;;;;;;;5052739;28;20502;-45
2023/11/06 01:39:29;;;;;;;8.57;6.90;;;;;;;;;;5052610;28;20421;-45
2023/11/06 01:41:55;;;;;;;8.07;6.63;;;;;;;;;;5051981;28;20432;-45
2023/11/06 01:44:21;;;;;;;6.80;5.63;;;;;;;;;;5052092;28;20438;-45
2023/11/06 01:46:47;;;;;;;7.73;5.70;;;;;;;;;;5052476;28;20832;-45
2023/11/06 01:49:15;;;;;;;8.03;5.43;;;;;;;;;;5052518;28;20779;-45
2023/11/06 01:51:41;;;;;;;7.50;5.77;;;;;;;;;;5052559;28;20416;-45
2023/11/06 01:54:07;;;;;;;7.97;5.57;;;;;;;;;;5052093;28;20445;-44
2023/11/06 01:56:34;;;;;;;7.07;5.10;;;;;;;;;;5052374;28;20479;-44
2023/11/06 01:59:04;;;;;;;8.17;5.60;;;;;;;;;;5052107;28;20506;-44
2023/11/06 02:01:30;;;;;;;8.93;6.23;;;;;;;;;;5050183;28;20453;-44
2023/11/06 02:03:56;;;;;;;8.33;6.07;;;;;;;;;;5049831;28;20962;-44
2023/11/06 02:06:26;;;;;;;8.03;5.77;;;;;;;;;;5050310;28;20806;-44
2023/11/06 02:08:52;;;;;;;7.83;5.53;;;;;;;;;;5052116;28;20975;-44
2023/11/06 02:11:19;;;;;;;7.57;5.50;;;;;;;;;;5052060;28;20424;-44
2023/11/06 02:13:45;;;;;;;8.87;6.10;;;;;;;;;;5051975;28;20417;-44
2023/11/06 02:16:11;;;;;;;8.67;6.13;;;;;;;;;;5058819;28;20409;-44
2023/11/06 02:18:38;;;;;;;8.87;6.80;;;;;;;;;;5052014;28;20410;-44
2023/11/06 02:21:05;;;;;;;8.63;6.20;;;;;;;;;;5052438;28;20946;-44
2023/11/06 02:23:31;;;;;;;9.90;6.87;;;;;;;;;;5052676;28;20435;-44
2023/11/06 02:25:57;;;;;;;8.57;5.60;;;;;;;;;;5054281;28;20871;-45
2023/11/06 02:28:23;;;;;;;7.97;5.60;;;;;;;;;;5057053;28;20412;-45
2023/11/06 02:30:52;;;;;;;8.33;5.67;;;;;;;;;;5051816;28;20893;-44
2023/11/06 02:33:19;;;;;;;8.77;6.30;;;;;;;;;;5044160;28;20424;-44
2023/11/06 02:35:45;;;;;;;8.27;5.27;;;;;;;;;;5051658;28;20437;-45
2023/11/06 02:38:11;;;;;;;7.97;5.10;;;;;;;;;;5055432;28;20432;-44
2023/11/06 02:40:37;;;;;;;8.23;5.30;;;;;;;;;;5054998;28;20896;-44
2023/11/06 02:43:03;;;;;;;7.40;4.87;;;;;;;;;;5053512;28;20431;-44
2023/11/06 02:45:29;;;;;;;7.47;4.90;;;;;;;;;;5057725;28;20427;-44
2023/11/06 02:47:55;;;;;;;7.73;5.67;;;;;;;;;;5051498;28;20545;-44
2023/11/06 02:50:21;;;;;;;7.93;5.13;;;;;;;;;;5053411;28;20488;-45
2023/11/06 02:52:48;;;;;;;8.27;5.47;;;;;;;;;;5054749;28;20497;-45
2023/11/06 02:55:14;;;;;;;8.13;5.33;;;;;;;;;;5056211;28;20902;-44
2023/11/06 02:57:40;;;;;;;7.40;5.03;;;;;;;;;;5056816;28;20419;-44
2023/11/06 03:00:07;;;;;;;8.30;5.30;;;;;;;;;;5052516;28;20413;-45
2023/11/06 03:02:36;;;;;;;7.43;5.13;;;;;;;;;;5051694;28;20441;-45
2023/11/06 03:05:06;;;;;;;7.73;5.00;;;;;;;;;;5052886;28;20803;-44
2023/11/06 03:07:33;;;;;;;7.60;5.03;;;;;;;;;;5054760;28;20457;-45
2023/11/06 03:09:59;;;;;;;7.63;4.97;;;;;;;;;;5051354;28;20413;-45
2023/11/06 03:12:25;;;;;;;7.83;5.07;;;;;;;;;;5051223;28;20413;-45
2023/11/06 03:14:51;;;;;;;7.33;5.20;;;;;;;;;;5051139;28;20502;-44
2023/11/06 03:17:18;;;;;;;7.97;5.97;;;;;;;;;;5052889;28;20405;-45
2023/11/06 03:19:44;;;;;;;8.53;6.33;;;;;;;;;;5053682;28;20897;-45
2023/11/06 03:22:09;;;;;;;7.53;4.87;;;;;;;;;;5052115;28;20471;-45
2023/11/06 03:24:35;;;;;;;7.40;4.97;;;;;;;;;;5051132;28;20824;-44
2023/11/06 03:27:02;;;;;;;8.43;5.73;;;;;;;;;;5057585;28;20460;-44
2023/11/06 03:29:27;;;;;;;8.00;5.00;;;;;;;;;;5059538;28;20474;-44
2023/11/06 03:31:54;;;;;;;8.73;6.03;;;;;;;;;;5051284;28;20960;-44
2023/11/06 03:34:20;;;;;;;6.87;4.50;;;;;;;;;;5054184;28;20417;-45
2023/11/06 03:36:46;;;;;;;7.27;4.90;;;;;;;;;;5055424;28;20518;-44
2023/11/06 03:39:13;;;;;;;8.60;5.87;;;;;;;;;;5052824;28;20890;-45
2023/11/06 03:41:39;;;;;;;8.03;5.13;;;;;;;;;;5056095;28;20896;-44
2023/11/06 03:44:05;;;;;;;8.27;5.23;;;;;;;;;;5050992;28;20432;-44
2023/11/06 03:46:31;;;;;;;7.83;5.40;;;;;;;;;;5050961;28;20464;-45
2023/11/06 03:48:57;;;;;;;8.13;5.03;;;;;;;;;;5054182;28;20892;-44
2023/11/06 03:51:24;;;;;;;8.17;5.37;;;;;;;;;;5055889;28;20782;-44
2023/11/06 03:53:50;;;;;;;8.43;5.10;;;;;;;;;;5057182;28;20537;-44
2023/11/06 03:56:16;;;;;;;8.47;5.53;;;;;;;;;;5050688;28;20479;-44
2023/11/06 03:58:42;;;;;;;8.00;5.13;;;;;;;;;;5050763;28;20444;-44
2023/11/06 04:01:08;;;;;;;7.50;4.80;;;;;;;;;;5050011;28;20963;-44
2023/11/06 04:03:38;;;;;;;7.87;5.27;;;;;;;;;;5051565;28;20428;-45
2023/11/06 04:06:04;;;;;;;8.03;5.23;;;;;;;;;;5059103;28;20471;-44
2023/11/06 04:08:30;;;;;;;7.83;5.13;;;;;;;;;;5060838;28;20416;-45
2023/11/06 04:10:56;;;;;;;7.07;5.10;;;;;;;;;;5062425;28;20416;-44
2023/11/06 04:13:22;;;;;;;11.13;6.90;;;;;;;;;;5054172;28;20542;-44
2023/11/06 04:15:48;;;;;;;8.27;5.30;;;;;;;;;;5056956;28;20432;-45
2023/11/06 04:18:14;;;;;;;8.17;5.30;;;;;;;;;;5054522;28;20437;-45
2023/11/06 04:20:43;;;;;;;8.43;5.40;;;;;;;;;;5058926;28;20455;-44
2023/11/06 04:23:09;;;;;;;8.73;5.53;;;;;;;;;;5060397;28;20520;-44
2023/11/06 04:25:36;;;;;;;8.13;5.77;;;;;;;;;;5062081;28;20436;-45
2023/11/06 04:28:02;;;;;;;8.63;5.87;;;;;;;;;;5052671;28;20797;-44
2023/11/06 04:30:28;;;;;;;6.93;4.83;;;;;;;;;;5057048;28;20416;-44
2023/11/06 04:32:54;;;;;;;7.70;5.37;;;;;;;;;;5054007;28;20425;-44
2023/11/06 04:35:22;;;;;;;8.20;6.00;;;;;;;;;;5056039;28;20425;-44
2023/11/06 04:37:48;;;;;;;8.07;5.20;;;;;;;;;;5057602;28;20438;-44
2023/11/06 04:40:14;;;;;;;8.10;5.50;;;;;;;;;;5053839;28;20864;-44
2023/11/06 04:42:40;;;;;;;8.17;5.63;;;;;;;;;;5053870;28;20828;-44
2023/11/06 04:45:08;;;;;;;8.67;6.03;;;;;;;;;;5053315;28;20520;-44
2023/11/06 04:47:34;;;;;;;8.23;5.97;;;;;;;;;;5053645;28;20964;-44
2023/11/06 04:50:00;;;;;;;7.70;5.60;;;;;;;;;;5060011;28;20904;-44
2023/11/06 04:52:26;;;;;;;8.33;5.80;;;;;;;;;;5056934;28;20474;-44
2023/11/06 04:54:52;;;;;;;8.97;6.07;;;;;;;;;;5055329;28;20771;-44
2023/11/06 04:57:18;;;;;;;7.83;5.70;;;;;;;;;;5053575;28;20851;-44
2023/11/06 04:59:45;;;;;;;8.03;6.30;;;;;;;;;;5056408;28;20486;-44
2023/11/06 05:02:11;;;;;;;8.13;5.80;;;;;;;;;;5053597;28;20780;-44
2023/11/06 05:04:37;;;;;;;7.87;5.87;;;;;;;;;;5059539;28;20432;-44
2023/11/06 05:07:04;;;;;;;8.57;6.10;;;;;;;;;;5053102;28;20471;-44
2023/11/06 05:09:32;;;;;;;7.07;5.10;;;;;;;;;;5053584;28;20441;-44
2023/11/06 05:12:06;;;;;;;7.17;5.13;;;;;;;;;;5056302;28;20405;-44
2023/11/06 05:14:32;;;;;;;8.43;5.40;;;;;;;;;;5055059;28;20992;-44
2023/11/06 05:16:58;;;;;;;7.97;5.27;;;;;;;;;;5055588;28;20418;-44
2023/11/06 05:19:24;;;;;;;8.27;5.40;;;;;;;;;;5059260;28;20616;-44
2023/11/06 05:21:50;;;;;;;7.83;5.03;;;;;;;;;;5053100;28;20436;-45
2023/11/06 05:24:16;;;;;;;8.33;5.93;;;;;;;;;;5052827;28;20428;-44
2023/11/06 05:26:42;;;;;;;7.80;5.37;;;;;;;;;;5055846;28;20479;-44
2023/11/06 05:29:08;;;;;;;8.20;5.73;;;;;;;;;;5052946;28;20896;-45
2023/11/06 05:31:34;;;;;;;8.23;5.60;;;;;;;;;;5056992;28;20848;-44
2023/11/06 05:34:00;;;;;;;9.93;6.70;;;;;;;;;;5055399;28;20801;-44
2023/11/06 05:36:28;;;;;;;8.00;5.43;;;;;;;;;;5059651;28;20404;-44
2023/11/06 05:38:54;;;;;;;8.23;5.70;;;;;;;;;;5052801;28;20905;-44
2023/11/06 05:41:20;;;;;;;8.00;5.67;;;;;;;;;;5055585;28;20416;-45
2023/11/06 05:43:48;;;;;;;8.47;5.77;;;;;;;;;;5052341;28;20421;-44
2023/11/06 05:46:14;;;;;;;7.93;5.63;;;;;;;;;;5058698;28;20531;-44
2023/11/06 05:48:40;;;;;;;8.43;5.93;;;;;;;;;;5052549;28;20885;-44
2023/11/06 05:51:06;;;;;;;8.70;6.30;;;;;;;;;;5052503;28;21026;-44
2023/11/06 05:53:32;;;;;;;10.27;7.43;;;;;;;;;;5052576;28;20500;-44
2023/11/06 05:55:57;;;;;;;7.73;5.77;;;;;;;;;;5054625;28;20528;-44
2023/11/06 05:58:23;;;;;;;7.80;5.87;;;;;;;;;;5052807;28;20417;-44
2023/11/06 06:00:51;;;;;;;8.20;5.80;;;;;;;;;;5052282;28;20416;-45
2023/11/06 06:03:19;;;;;;;12.00;8.33;;;;;;;;;;5044327;28;20414;-45
2023/11/06 06:05:46;;;;;;;8.77;6.53;;;;;;;;;;5052098;28;20994;-44
2023/11/06 06:08:13;;;;;;;7.93;5.77;;;;;;;;;;5052158;28;20432;-44
2023/11/06 06:10:40;;;;;;;7.33;5.40;;;;;;;;;;5052258;28;20421;-44
2023/11/06 06:13:06;;;;;;;8.53;5.80;;;;;;;;;;5052091;28;20416;-44
2023/11/06 06:15:32;;;;;;;7.23;5.47;;;;;;;;;;5057837;28;20428;-44
2023/11/06 06:17:58;;;;;;;8.33;5.60;;;;;;;;;;5051897;28;20433;-44
2023/11/06 06:20:24;;;;;;;7.93;5.93;;;;;;;;;;5052011;28;20784;-45
2023/11/06 06:22:53;;;;;;;8.07;5.83;;;;;;;;;;5054617;28;20413;-44
2023/11/06 06:25:20;;;;;;;6.93;5.17;;;;;;;;;;5052310;28;20468;-44
2023/11/06 06:27:46;;;;;;;8.17;5.83;;;;;;;;;;5056019;28;20963;-44
2023/11/06 06:30:15;;;;;;;9.73;6.37;;;;;;;;;;5053679;28;20405;-44
2023/11/06 06:32:41;;;;;;;9.93;6.87;;;;;;;;;;5055829;28;20410;-44
2023/11/06 06:35:08;;;;;;;9.57;6.40;;;;;;;;;;5051686;28;20433;-44
2023/11/06 06:37:34;;;;;;;9.60;6.43;;;;;;;;;;5053487;28;20409;-44
2023/11/06 06:40:00;;;;;;;9.40;6.40;;;;;;;;;;5054865;28;20436;-45
2023/11/06 06:42:26;;;;;;;8.27;6.07;;;;;;;;;;5051113;28;20421;-45
2023/11/06 06:44:52;;;;;;;10.10;7.20;;;;;;;;;;5058083;28;20454;-45
2023/11/06 06:47:18;;;;;;;7.23;6.10;;;;;;;;;;5051080;28;20480;-44
2023/11/06 06:49:44;;;;;;;8.03;6.37;;;;;;;;;;5052936;28;20487;-45
2023/11/06 06:52:10;;;;;;;8.03;6.53;;;;;;;;;;5052045;28;20433;-44
2023/11/06 06:54:37;;;;;;;7.70;6.10;;;;;;;;;;5047323;28;20433;-44
2023/11/06 06:57:04;;;;;;;8.03;6.97;;;;;;;;;;5057119;28;20496;-44
2023/11/06 06:59:30;;;;;;;8.93;6.73;;;;;;;;;;5046337;28;20797;-44
2023/11/06 07:01:56;;;;;;;8.87;7.10;;;;;;;;;;5047507;28;20504;-44
2023/11/06 07:04:23;;;;;;;8.17;6.77;;;;;;;;;;5050453;28;20444;-44
2023/11/06 07:06:49;;;;;;;7.53;6.40;;;;;;;;;;5051316;28;20569;-44
2023/11/06 07:09:15;;;;;;;7.67;6.43;;;;;;;;;;5051693;28;20943;-43
2023/11/06 07:11:41;;;;;;;9.07;7.97;;;;;;;;;;5051384;28;20433;-44
2023/11/06 07:14:07;;;;;;;8.73;6.90;;;;;;;;;;5050914;28;20836;-44
2023/11/06 07:16:33;;;;;;;9.43;8.50;;;;;;;;;;5051188;28;20496;-43
2023/11/06 07:18:59;;;;;;;9.20;7.20;;;;;;;;;;5051308;28;20501;-45
2023/11/06 07:21:25;;;;;;;9.07;7.43;;;;;;;;;;5055322;28;20447;-44
2023/11/06 07:23:51;;;;;;;10.40;7.87;;;;;;;;;;5056577;28;20412;-44
2023/11/06 07:26:17;;;;;;;9.53;8.63;;;;;;;;;;5053379;28;20452;-44
2023/11/06 07:28:44;;;;;;;8.00;7.07;;;;;;;;;;5054691;28;20451;-44
2023/11/06 07:31:10;;;;;;;8.83;7.93;;;;;;;;;;5050672;28;20402;-44
2023/11/06 07:33:36;;;;;;;10.43;9.40;;;;;;;;;;5052088;28;20409;-44
2023/11/06 07:36:02;;;;;;;10.23;9.23;;;;;;;;;;5055338;28;20458;-45
2023/11/06 07:38:29;;;;;;;10.17;9.17;;;;;;;;;;5057464;28;20405;-43
2023/11/06 07:40:55;;;;;;;9.97;8.97;;;;;;;;;;5062382;28;20816;-44
2023/11/06 07:43:21;;;;;;;10.90;9.27;;;;;;;;;;5054724;28;20463;-44
2023/11/06 07:45:46;;;;;;;11.03;10.03;;;;;;;;;;5054812;28;20475;-44
2023/11/06 07:48:13;;;;;;;10.90;9.90;;;;;;;;;;5054931;28;20455;-44
2023/11/06 07:50:39;;;;;;;10.77;9.87;;;;;;;;;;5053581;28;20418;-44
2023/11/06 07:53:05;;;;;;;9.83;8.93;;;;;;;;;;5054842;28;20408;-44
2023/11/06 07:55:32;;;;;;;10.47;9.47;;;;;;;;;;5047040;28;20821;-44
2023/11/06 07:57:58;;;;;;;10.00;9.10;;;;;;;;;;5052814;28;20413;-44
2023/11/06 08:00:24;;;;;;;9.07;8.17;;;;;;;;;;5057197;28;20511;-44
2023/11/06 08:02:50;;;;;;;10.50;9.50;;;;;;;;;;5058683;28;20408;-44
2023/11/06 08:05:16;;;;;;;9.73;8.80;;;;;;;;;;5054416;28;20424;-43
2023/11/06 08:07:42;;;;;;;10.10;9.10;;;;;;;;;;5054608;28;20552;-44
2023/11/06 08:10:09;;;;;;;11.20;10.07;;;;;;;;;;5054282;28;20405;-44
2023/11/06 08:12:35;;;;;;;10.50;9.50;;;;;;;;;;5054164;28;20467;-44
2023/11/06 08:15:04;;;;;;;10.50;9.50;;;;;;;;;;5056517;28;20520;-44
2023/11/06 08:17:30;;;;;;;11.63;10.57;;;;;;;;;;5058455;28;20424;-44
2023/11/06 08:19:57;;;;;;;12.17;11.07;;;;;;;;;;5059722;28;20416;-44
2023/11/06 08:22:24;;;;;;;11.17;10.20;;;;;;;;;;5058066;28;20416;-44
2023/11/06 08:24:50;;;;;;;13.17;12.07;;;;;;;;;;5057238;28;20481;-44
2023/11/06 08:27:16;;;;;;;12.03;11.03;;;;;;;;;;5054200;28;20461;-44
2023/11/06 08:29:44;;;;;;;12.77;11.77;;;;;;;;;;5056483;28;20405;-44
2023/11/06 08:32:14;;;;;;;11.83;10.83;;;;;;;;;;5058036;28;20415;-44
2023/11/06 08:34:43;;;;;;;11.50;10.50;;;;;;;;;;5053859;28;20934;-44
2023/11/06 08:37:12;;;;;;;12.07;11.07;;;;;;;;;;5053926;28;20424;-43
2023/11/06 08:39:45;;;;;;;10.87;9.83;;;;;;;;;;5053184;28;20422;-43
2023/11/06 08:42:14;;;;;;;10.23;9.33;;;;;;;;;;5056375;28;20823;-43
2023/11/06 08:44:41;;;;;;;11.80;10.80;;;;;;;;;;5056297;28;20422;-43
2023/11/06 08:47:07;;;;;;;10.70;9.70;;;;;;;;;;5054883;28;20489;-44
2023/11/06 08:49:33;;;;;;;12.80;11.70;;;;;;;;;;5053322;28;20421;-44
2023/11/06 08:51:59;;;;;;;13.83;12.63;;;;;;;;;;5061049;28;20923;-43
2023/11/06 08:54:25;;;;;;;13.40;12.27;;;;;;;;;;5053443;28;20434;-44
2023/11/06 08:56:51;;;;;;;11.63;10.63;;;;;;;;;;5049295;28;20434;-44
2023/11/06 08:59:17;;;;;;;13.90;12.60;;;;;;;;;;5055814;28;20499;-44
2023/11/06 09:01:50;;;;;;;13.37;12.37;;;;;;;;;;5056495;28;20907;-44
2023/11/06 09:04:16;;;;;;;13.00;12.00;;;;;;;;;;5055777;28;20426;-44
2023/11/06 09:06:43;;;;;;;13.17;11.93;;;;;;;;;;5056925;28;20513;-44
2023/11/06 09:09:12;;;;;;;13.10;11.97;;;;;;;;;;5052655;28;20916;-44
2023/11/06 09:11:40;;;;;;;17.17;15.50;;;;;;;;;;5052081;28;20537;-44
2023/11/06 09:14:07;;;;;;;13.67;12.37;;;;;;;;;;5048322;28;20486;-45
2023/11/06 09:16:34;;;;;;;14.23;13.13;;;;;;;;;;5058215;28;20925;-45
2023/11/06 09:19:00;;;;;;;15.33;14.13;;;;;;;;;;5053147;28;20858;-45
2023/11/06 09:21:26;;;;;;;15.90;14.63;;;;;;;;;;5053160;28;20500;-45
2023/11/06 09:23:52;;;;;;;12.80;11.70;;;;;;;;;;5054822;28;20506;-45
2023/11/06 09:26:19;;;;;;;12.80;11.70;;;;;;;;;;5052950;28;20457;-45
2023/11/06 09:28:45;;;;;;;18.90;17.50;;;;;;;;;;5056719;28;20413;-45
2023/11/06 09:31:11;;;;;;;41.67;37.70;;;;;;;;;;5058155;28;20420;-45
2023/11/06 09:33:38;;;;;;;29.30;27.40;;;;;;;;;;5059521;28;20539;-45
2023/11/06 09:36:06;;;;;;;42.27;39.37;;;;;;;;;;5051790;28;20948;-45
2023/11/06 09:38:32;;;;;;;35.17;33.13;;;;;;;;;;5052594;28;20462;-45
2023/11/06 09:40:58;;;;;;;36.50;34.17;;;;;;;;;;5057489;28;20415;-46
2023/11/06 09:43:25;;;;;;;30.33;28.37;;;;;;;;;;5070829;28;20930;-46
2023/11/06 09:45:53;;;;;;;29.00;27.30;;;;;;;;;;5052594;28;20419;-45
2023/11/06 09:48:19;;;;;;;29.03;27.43;;;;;;;;;;5071864;28;20420;-45
2023/11/06 09:50:46;;;;;;;28.40;26.77;;;;;;;;;;5056585;28;20415;-45
2023/11/06 09:53:12;;;;;;;36.60;34.50;;;;;;;;;;5065678;28;20534;-45
2023/11/06 09:55:39;;;;;;;40.60;38.30;;;;;;;;;;5061983;28;20453;-45
2023/11/06 09:58:06;;;;;;;52.30;49.17;;;;;;;;;;5059763;28;20548;-45
2023/11/06 10:00:32;;;;;;;47.43;44.80;;;;;;;;;;5067544;28;20421;-47
2023/11/06 10:02:58;;;;;;;70.83;66.00;;;;;;;;;;5069268;28;20768;-45
2023/11/06 10:05:25;;;;;;;62.60;58.63;;;;;;;;;;5032642;28;20467;-45
2023/11/06 10:07:52;;;;;;;33.60;31.73;;;;;;;;;;5050668;28;20435;-46
2023/11/06 10:10:22;;;;;;;28.37;26.80;;;;;;;;;;5067954;28;20393;-44
2023/11/06 10:13:13;;;;;;;27.93;26.37;;;;;;;;;;5059065;28;20406;-45
2023/11/06 10:15:40;;;;;;;28.27;26.67;;;;;;;;;;5051936;28;20515;-45
2023/11/06 10:18:13;;;;;;;28.93;27.23;;;;;;;;;;5061578;28;20924;-45
2023/11/06 10:20:47;;;;;;;27.47;25.87;;;;;;;;;;5063417;28;20789;-45
2023/11/06 10:23:22;;;;;;;28.97;27.37;;;;;;;;;;5051974;28;20400;-45
2023/11/06 10:25:49;;;;;;;31.83;30.03;;;;;;;;;;5056903;28;20422;-44
2023/11/06 10:28:18;;;;;;;33.13;31.23;;;;;;;;;;5069838;28;20412;-44
2023/11/06 10:30:53;;;;;;;34.47;32.60;;;;;;;;;;5052479;28;20751;-44
2023/11/06 10:33:21;;;;;;;41.73;39.53;;;;;;;;;;5031821;28;20397;-45
2023/11/06 10:35:48;;;;;;;34.63;32.73;;;;;;;;;;5067807;28;20411;-45
2023/11/06 10:38:31;;;;;;;49.57;46.87;;;;;;;;;;5056723;28;20386;-47
2023/11/06 10:40:57;;;;;;;49.33;46.63;;;;;;;;;;5065975;28;20374;-45
2023/11/06 10:43:23;;;;;;;51.47;48.53;;;;;;;;;;5060193;28;20434;-45
2023/11/06 10:45:50;;;;;;;30.80;29.10;;;;;;;;;;5060122;28;20428;-45
2023/11/06 10:48:18;;;;;;;32.10;30.40;;;;;;;;;;5066444;28;20787;-45
2023/11/06 10:50:45;;;;;;;33.80;31.90;;;;;;;;;;5051179;28;20411;-45
2023/11/06 10:53:12;;;;;;;30.03;28.43;;;;;;;;;;5051781;28;20408;-45
2023/11/06 10:55:38;;;;;;;26.10;24.60;;;;;;;;;;5071316;28;20497;-46
2023/11/06 10:58:04;;;;;;;28.20;26.70;;;;;;;;;;5038079;28;20765;-45
2023/11/06 11:00:32;;;;;;;27.50;26.00;;;;;;;;;;5045434;28;20473;-45
2023/11/06 11:02:58;;;;;;;23.97;22.57;;;;;;;;;;5062767;28;20419;-45
2023/11/06 11:05:27;;;;;;;25.17;23.67;;;;;;;;;;5063108;28;20429;-45
2023/11/06 11:07:54;;;;;;;24.40;22.90;;;;;;;;;;5056912;28;20800;-45
2023/11/06 11:10:22;;;;;;;22.20;20.83;;;;;;;;;;5068989;28;20401;-45
2023/11/06 11:12:51;;;;;;;23.10;21.73;;;;;;;;;;5053615;28;20396;-45
2023/11/06 11:15:27;;;;;;;24.27;22.97;;;;;;;;;;5035531;28;20508;-45
2023/11/06 11:18:00;;;;;;;22.27;20.87;;;;;;;;;;5035644;28;20401;-45
2023/11/06 11:20:26;;;;;;;22.10;20.80;;;;;;;;;;5068415;28;20415;-45
2023/11/06 11:23:06;;;;;;;21.20;20.00;;;;;;;;;;5062090;28;20407;-45
2023/11/06 11:25:53;;;;;;;20.40;19.20;;;;;;;;;;5067662;28;20458;-45
2023/11/06 11:28:19;;;;;;;20.20;18.97;;;;;;;;;;5062950;28;20825;-45
2023/11/06 11:30:45;;;;;;;18.97;17.77;;;;;;;;;;5064712;28;20481;-45
2023/11/06 11:33:11;;;;;;;20.37;19.07;;;;;;;;;;5069071;28;20402;-45
2023/11/06 11:35:37;;;;;;;22.37;20.97;;;;;;;;;;5055051;28;20422;-45
2023/11/06 11:38:03;;;;;;;21.27;19.97;;;;;;;;;;5055190;28;20393;-46
2023/11/06 11:40:41;;;;;;;21.50;20.20;;;;;;;;;;5075114;28;20387;-45
2023/11/06 11:43:37;;;;;;;22.07;20.80;;;;;;;;;;5056328;28;20477;-45
2023/11/06 11:46:03;;;;;;;20.40;19.10;;;;;;;;;;5033628;28;20988;-45
2023/11/06 11:49:05;;;;;;;20.93;19.67;;;;;;;;;;5068641;28;20446;-45
2023/11/06 11:51:52;;;;;;;20.50;19.10;;;;;;;;;;5033812;28;20922;-45
2023/11/06 11:54:30;;;;;;;21.03;19.73;;;;;;;;;;5053345;28;20880;-45
2023/11/06 11:56:56;;;;;;;18.23;17.13;;;;;;;;;;5054526;28;20494;-45
2023/11/06 11:59:23;;;;;;;17.30;16.20;;;;;;;;;;5069065;28;20412;-46
2023/11/06 12:01:50;;;;;;;17.50;16.30;;;;;;;;;;5066217;28;20412;-45
2023/11/06 12:04:17;;;;;;;18.23;17.03;;;;;;;;;;5057520;28;20941;-45
2023/11/06 12:06:43;;;;;;;17.93;16.73;;;;;;;;;;5040037;28;20504;-45
2023/11/06 12:09:09;;;;;;;17.43;16.20;;;;;;;;;;5056889;28;20397;-45
2023/11/06 12:11:35;;;;;;;19.00;17.67;;;;;;;;;;5068287;28;20401;-45
2023/11/06 12:14:02;;;;;;;17.93;16.70;;;;;;;;;;5055505;28;20924;-45
2023/11/06 12:16:31;;;;;;;19.37;18.07;;;;;;;;;;5057497;28;20439;-45
2023/11/06 12:18:57;;;;;;;18.43;17.23;;;;;;;;;;5058942;28;20416;-45
2023/11/06 12:21:23;;;;;;;20.87;19.47;;;;;;;;;;5060703;28;20901;-45
2023/11/06 12:23:50;;;;;;;23.27;21.77;;;;;;;;;;5061549;28;20409;-45
2023/11/06 12:26:17;;;;;;;23.07;21.67;;;;;;;;;;5053849;28;20464;-45
2023/11/06 12:28:50;;;;;;;25.90;24.30;;;;;;;;;;5052336;28;20840;-45
2023/11/06 12:31:16;;;;;;;25.20;23.70;;;;;;;;;;5045996;28;20396;-45
2023/11/06 12:33:42;;;;;;;27.53;25.90;;;;;;;;;;5058284;28;20978;-45
2023/11/06 12:36:24;;;;;;;24.80;23.47;;;;;;;;;;5053791;28;20432;-45
2023/11/06 12:38:51;;;;;;;24.40;22.90;;;;;;;;;;5061744;28;20415;-45
2023/11/06 12:41:26;;;;;;;23.43;22.10;;;;;;;;;;5053838;28;20403;-46
2023/11/06 12:43:54;;;;;;;22.43;21.00;;;;;;;;;;5053549;28;20441;-45
2023/11/06 12:46:20;;;;;;;21.93;20.60;;;;;;;;;;5058425;28;20502;-45
2023/11/06 12:48:51;;;;;;;29.37;27.20;;;;;;;;;;5058966;28;20408;-45
2023/11/06 12:51:18;;;;;;;24.53;23.03;;;;;;;;;;5045733;28;20413;-45
2023/11/06 12:53:47;;;;;;;24.17;22.47;;;;;;;;;;5053287;28;20405;-45
2023/11/06 12:56:17;;;;;;;23.80;22.40;;;;;;;;;;5053692;28;20434;-45
2023/11/06 12:58:43;;;;;;;28.20;26.50;;;;;;;;;;5056463;28;20544;-46
2023/11/06 13:01:22;;;;;;;23.57;22.07;;;;;;;;;;5054555;28;20886;-45
2023/11/06 13:03:49;;;;;;;23.87;22.37;;;;;;;;;;5053079;28;20425;-45
2023/11/06 13:06:18;;;;;;;21.50;20.20;;;;;;;;;;5061178;28;20902;-45
2023/11/06 13:08:44;;;;;;;23.27;21.87;;;;;;;;;;5051690;28;20412;-45
2023/11/06 13:11:10;;;;;;;22.30;21.00;;;;;;;;;;5056187;28;20403;-45
2023/11/06 13:13:36;;;;;;;27.23;25.53;;;;;;;;;;5055498;28;20406;-45
2023/11/06 13:16:03;;;;;;;28.77;27.03;;;;;;;;;;5055131;28;20406;-45
2023/11/06 13:18:31;;;;;;;34.23;32.30;;;;;;;;;;5059492;28;20416;-45
2023/11/06 13:21:41;;;;;;;32.57;30.63;;;;;;;;;;5060869;28;20416;-45
2023/11/06 13:23:47;;;;;;;39.30;37.20;;;;;;;;;;5054942;28;20487;-44
2023/11/06 13:26:13;;;;;;;33.47;31.60;;;;;;;;;;5055714;28;20825;-45
2023/11/06 13:28:40;;;;;;;29.47;27.80;;;;;;;;;;5057638;28;20441;-45
2023/11/06 13:31:12;;;;;;;27.00;25.50;;;;;;;;;;5059161;28;20488;-45
2023/11/06 13:33:41;;;;;;;34.10;31.40;;;;;;;;;;5051754;28;20952;-45
2023/11/06 13:36:08;;;;;;;26.07;24.47;;;;;;;;;;5055491;28;20759;-45
2023/11/06 13:38:36;;;;;;;25.87;24.30;;;;;;;;;;5072063;28;20393;-45
2023/11/06 13:41:05;;;;;;;25.73;24.20;;;;;;;;;;5052950;28;20981;-45
2023/11/06 13:43:31;;;;;;;26.50;24.80;;;;;;;;;;5070957;28;20472;-45
2023/11/06 13:45:58;;;;;;;24.17;22.70;;;;;;;;;;5057350;28;20466;-45
2023/11/06 13:48:24;;;;;;;23.80;22.37;;;;;;;;;;5065115;28;20426;-45
2023/11/06 13:50:50;;;;;;;28.07;26.37;;;;;;;;;;5063347;28;20425;-45
2023/11/06 13:53:25;;;;;;;28.10;26.47;;;;;;;;;;5058681;28;20913;-46
2023/11/06 13:55:51;;;;;;;25.20;23.67;;;;;;;;;;5067867;28;20955;-45
2023/11/06 13:58:18;;;;;;;27.47;25.87;;;;;;;;;;5051240;28;20358;-45
2023/11/06 14:00:48;;;;;;;25.17;23.77;;;;;;;;;;5043121;28;20398;-45
2023/11/06 14:03:20;;;;;;;25.80;24.30;;;;;;;;;;5071586;28;20768;-45
2023/11/06 14:05:48;;;;;;;23.13;21.67;;;;;;;;;;5054980;28;20800;-45
2023/11/06 14:08:23;;;;;;;22.40;21.00;;;;;;;;;;5066542;28;20459;-45
2023/11/06 14:10:50;;;;;;;21.87;20.50;;;;;;;;;;5059860;28;20480;-45
2023/11/06 14:13:21;;;;;;;22.07;20.67;;;;;;;;;;5052101;28;20413;-46
2023/11/06 14:15:51;;;;;;;22.60;21.20;;;;;;;;;;5059363;28;20876;-45
2023/11/06 14:18:20;;;;;;;22.23;20.83;;;;;;;;;;5067193;28;20405;-45
2023/11/06 14:20:50;;;;;;;18.60;17.50;;;;;;;;;;5054231;28;20480;-44
2023/11/06 14:23:16;;;;;;;20.57;19.27;;;;;;;;;;5072028;28;20428;-45
2023/11/06 14:25:45;;;;;;;18.43;17.23;;;;;;;;;;5052242;28;20459;-45
2023/11/06 14:28:13;;;;;;;18.97;17.77;;;;;;;;;;5069068;28;20459;-45
2023/11/06 14:30:39;;;;;;;20.63;19.23;;;;;;;;;;5057390;28;20751;-45
2023/11/06 14:33:08;;;;;;;19.37;18.17;;;;;;;;;;5063251;28;20464;-45